Time;durP1;ratioP1;P1;durP2;ratioP2;P2;SDS_P1;SDS_P2;PMS_P1;PMS_P2;Temp;Humidity;BMP_temperature;BMP_pressure;BME280_temperature;BME280_humidity;BME280_pressure;Samples;Min_cycle;Max_cycle;Signal;HPM_P1;HPM_P2
2022/08/03 00:00:06;;;;;;;12.43;8.85;;;;;;;17.14;78.14;97634.41;10250209;28;20088;-56
2022/08/03 00:05:07;;;;;;;11.07;8.80;;;;;;;17.17;77.99;97632.56;10249378;28;20078;-56
2022/08/03 00:10:06;;;;;;;11.00;7.03;;;;;;;17.19;78.01;97636.03;10250656;28;20074;-56
2022/08/03 00:15:05;;;;;;;7.93;5.25;;;;;;;17.10;79.16;97647.66;10250210;28;20078;-56
2022/08/03 00:20:05;;;;;;;11.00;4.53;;;;;;;17.02;79.44;97639.13;10249429;28;20073;-56
2022/08/03 00:25:04;;;;;;;7.93;4.53;;;;;;;17.01;79.15;97627.81;10248845;28;20073;-57
2022/08/03 00:30:04;;;;;;;8.27;5.07;;;;;;;17.00;79.40;97635.69;10249516;28;20069;-56
2022/08/03 00:35:03;;;;;;;9.75;5.38;;;;;;;16.92;79.48;97649.88;10233541;28;20529;-56
2022/08/03 00:40:02;;;;;;;8.60;4.50;;;;;;;16.86;79.43;97636.97;10219569;28;20548;-56
2022/08/03 00:45:01;;;;;;;4.97;3.80;;;;;;;16.65;80.45;97633.16;10249102;28;20074;-56
2022/08/03 00:50:02;;;;;;;5.85;3.70;;;;;;;16.59;80.43;97630.69;10256621;28;20453;-56
2022/08/03 00:55:02;;;;;;;4.90;3.40;;;;;;;16.49;80.43;97626.59;10255728;28;20084;-56
2022/08/03 01:00:02;;;;;;;3.97;3.25;;;;;;;16.43;80.54;97624.13;10256493;28;20516;-56
2022/08/03 01:05:01;;;;;;;6.78;3.28;;;;;;;16.31;80.84;97630.56;10255669;28;20521;-56
2022/08/03 01:10:00;;;;;;;3.22;2.92;;;;;;;16.08;81.25;97639.00;10255737;28;20084;-56
2022/08/03 01:15:07;;;;;;;;;;;;;;;15.82;81.96;97644.88;10256629;28;20026;-56
2022/08/03 01:20:08;;;;;;;3.75;2.92;;;;;;;15.67;82.55;97638.22;10255719;28;19957;-56
2022/08/03 01:25:22;;;;;;;3.38;2.75;;;;;;;15.64;82.18;97627.81;10255073;28;20066;-56
2022/08/03 01:30:26;;;;;;;4.10;2.85;;;;;;;15.68;82.09;97635.53;10255026;28;20488;-56
2022/08/03 01:35:32;;;;;;;4.20;3.22;;;;;;;15.64;81.98;97617.34;10254614;28;20086;-56
2022/08/03 01:40:35;;;;;;;8.18;4.43;;;;;;;15.71;82.45;97633.75;10253954;28;20081;-56
2022/08/03 01:45:36;;;;;;;7.63;4.75;;;;;;;15.66;83.24;97628.63;10254096;28;20070;-56
2022/08/03 01:50:35;;;;;;;6.03;4.40;;;;;;;15.66;83.58;97624.25;10254614;28;20696;-56
2022/08/03 01:55:36;;;;;;;6.97;4.53;;;;;;;15.68;83.08;97625.09;10254045;28;20065;-56
2022/08/03 02:00:37;;;;;;;7.68;4.68;;;;;;;15.72;83.28;97630.25;10253823;28;20074;-56
2022/08/03 02:05:39;;;;;;;8.20;5.47;;;;;;;15.69;83.54;97618.09;10254053;28;20078;-56
2022/08/03 02:10:40;;;;;;;7.47;5.18;;;;;;;15.75;83.52;97624.94;10253381;28;20073;-56
2022/08/03 02:15:40;;;;;;;7.97;5.25;;;;;;;15.75;83.73;97617.09;10253102;28;20480;-56
2022/08/03 02:20:41;;;;;;;5.88;4.72;;;;;;;15.74;83.97;97612.75;10253474;28;20088;-56
2022/08/03 02:25:45;;;;;;;7.53;4.82;;;;;;;15.76;84.37;97617.03;10253179;28;20105;-55
2022/08/03 02:30:49;;;;;;;6.82;4.72;;;;;;;15.75;84.44;97610.09;10252296;28;20542;-55
2022/08/03 02:35:50;;;;;;;6.65;5.55;;;;;;;15.75;84.29;97619.72;10233251;28;20109;-55
2022/08/03 02:40:51;;;;;;;7.45;5.10;;;;;;;15.71;84.47;97618.91;10228906;28;20388;-57
2022/08/03 02:45:51;;;;;;;8.27;4.45;;;;;;;15.66;85.05;97615.56;10252031;28;20508;-57
2022/08/03 02:50:52;;;;;;;6.88;4.32;;;;;;;15.50;86.02;97615.03;10253083;28;20085;-57
2022/08/03 02:55:54;;;;;;;6.85;4.10;;;;;;;15.47;85.72;97615.13;10251461;28;20088;-57
2022/08/03 03:00:54;;;;;;;6.53;4.35;;;;;;;15.11;86.30;97607.22;10250710;28;20606;-57
2022/08/03 03:05:54;;;;;;;5.50;3.95;;;;;;;14.97;86.80;97622.31;10250855;28;20081;-57
2022/08/03 03:10:55;;;;;;;6.90;4.80;;;;;;;14.76;87.87;97632.31;10251158;28;20062;-57
2022/08/03 03:15:58;;;;;;;6.85;4.85;;;;;;;14.60;88.22;97636.94;10250752;28;20073;-57
2022/08/03 03:20:59;;;;;;;8.57;5.30;;;;;;;14.56;88.29;97650.06;10251133;28;20080;-57
2022/08/03 03:25:59;;;;;;;7.43;5.40;;;;;;;14.58;88.25;97646.53;10251378;28;20909;-57
2022/08/03 03:30:59;;;;;;;8.80;5.53;;;;;;;14.66;88.03;97645.53;10250919;28;20088;-55
2022/08/03 03:35:59;;;;;;;10.23;5.80;;;;;;;14.72;88.33;97645.47;10250219;28;20499;-55
2022/08/03 03:40:58;;;;;;;8.18;5.00;;;;;;;14.81;88.23;97650.50;10250459;28;20061;-55
2022/08/03 03:46:00;;;;;;;7.57;4.80;;;;;;;14.86;88.15;97653.88;10250186;28;20051;-56
2022/08/03 03:50:59;;;;;;;8.57;5.65;;;;;;;15.00;87.66;97661.44;10250065;28;20076;-56
2022/08/03 03:55:59;;;;;;;7.75;5.70;;;;;;;15.08;87.87;97662.13;10249927;28;20074;-56
2022/08/03 04:00:58;;;;;;;;;;;;;;;15.22;87.35;97661.84;10250590;28;20081;-56
2022/08/03 04:11:28;;;;;;;6.55;5.13;;;;;;;15.47;87.21;97662.19;10249285;28;20069;-56
2022/08/03 04:16:32;;;;;;;8.15;5.25;;;;;;;15.55;86.95;97664.63;10247475;28;20065;-56
2022/08/03 04:21:33;;;;;;;8.43;4.80;;;;;;;15.34;87.31;97676.41;10251967;28;20062;-56
2022/08/03 04:26:36;;;;;;;7.30;4.22;;;;;;;15.18;87.12;97674.16;10256192;28;20082;-56
2022/08/03 04:31:37;;;;;;;7.57;4.72;;;;;;;15.10;87.45;97670.81;10256647;28;20498;-56
2022/08/03 04:36:42;;;;;;;5.32;4.47;;;;;;;15.23;87.31;97680.13;10235231;28;20082;-56
2022/08/03 04:41:43;;;;;;;8.35;4.80;;;;;;;15.29;87.48;97684.34;10240284;28;20109;-56
2022/08/03 04:46:43;;;;;;;6.05;4.25;;;;;;;15.28;87.91;97687.03;10256380;28;20057;-56
2022/08/03 04:51:42;;;;;;;8.55;4.80;;;;;;;15.38;87.62;97699.84;10219224;28;20093;-56
2022/08/03 04:56:42;;;;;;;6.90;4.75;;;;;;;15.50;87.67;97692.66;10215892;28;20054;-56
2022/08/03 05:01:42;;;;;;;5.82;4.43;;;;;;;15.73;86.90;97692.13;10210413;28;20500;-56
2022/08/03 05:06:41;;;;;;;6.63;4.50;;;;;;;15.98;86.37;97695.94;10215643;28;20507;-56
2022/08/03 05:11:40;;;;;;;;;;;;;;;16.20;85.41;97700.66;10213357;28;20476;-56
2022/08/03 05:16:38;;;;;;;6.50;5.20;;;;;;;16.43;84.75;97710.56;10211492;28;19932;-56
2022/08/03 05:21:37;;;;;;;;;;;;;;;16.58;83.97;97701.44;10215337;28;20070;-55
2022/08/03 05:26:36;;;;;;;7.78;4.65;;;;;;;16.79;83.31;97707.88;10214237;28;19966;-56
2022/08/03 05:31:35;;;;;;;;;;;;;;;17.04;83.02;97713.38;10214027;28;20069;-55
2022/08/03 05:36:34;;;;;;;7.40;4.97;;;;;;;17.25;82.66;97706.66;10214741;28;19997;-55
2022/08/03 05:41:33;;;;;;;11.38;7.78;;;;;;;17.51;82.06;97711.13;10214388;28;20045;-56
2022/08/03 05:46:32;;;;;;;;;;;;;;;17.76;81.31;97713.91;10215660;28;20026;-56
2022/08/03 05:51:30;;;;;;;11.53;5.97;;;;;;;18.04;80.20;97706.06;10213965;28;19946;-56
2022/08/03 05:56:29;;;;;;;10.10;5.38;;;;;;;18.53;77.93;97724.63;10214091;28;20101;-56
2022/08/03 06:01:31;;;;;;;10.80;4.95;;;;;;;18.99;77.31;97723.94;10214140;28;20051;-56
2022/08/03 06:06:30;;;;;;;9.57;4.75;;;;;;;19.45;75.18;97724.88;10214345;28;20086;-56
2022/08/03 06:11:29;;;;;;;8.10;4.65;;;;;;;19.83;71.84;97719.09;10210334;28;20065;-56
2022/08/03 06:16:28;;;;;;;6.63;3.78;;;;;;;20.22;70.11;97729.84;10209689;28;20057;-56
2022/08/03 06:21:27;;;;;;;6.88;3.53;;;;;;;20.66;66.26;97719.28;10211493;28;20551;-56
2022/08/03 06:26:27;;;;;;;7.88;3.38;;;;;;;20.98;64.04;97716.16;10211569;28;20062;-56
2022/08/03 06:31:28;;;;;;;5.35;2.92;;;;;;;21.31;61.84;97720.00;10213501;28;20074;-56
2022/08/03 06:36:30;;;;;;;5.47;3.40;;;;;;;21.58;61.65;97722.28;10212248;28;20093;-56
2022/08/03 06:41:29;;;;;;;4.65;3.38;;;;;;;21.80;58.32;97719.50;10212703;28;20078;-56
2022/08/03 06:46:28;;;;;;;4.82;3.50;;;;;;;21.76;56.47;97723.25;10212767;28;20512;-56
2022/08/03 06:51:28;;;;;;;6.50;4.30;;;;;;;21.80;58.01;97714.22;10211764;28;20112;-56
2022/08/03 06:56:27;;;;;;;4.28;3.50;;;;;;;21.90;57.93;97718.16;10212206;28;20071;-57
2022/08/03 07:01:25;;;;;;;6.90;3.50;;;;;;;22.10;57.66;97706.66;10211994;28;20036;-57
2022/08/03 07:06:24;;;;;;;6.32;3.40;;;;;;;22.26;56.70;97705.91;10211274;28;20027;-56
2022/08/03 07:11:23;;;;;;;4.30;3.10;;;;;;;22.34;56.14;97709.03;10210860;28;20032;-56
2022/08/03 07:16:22;;;;;;;3.33;3.03;;;;;;;22.50;56.27;97709.13;10211391;28;20555;-56
2022/08/03 07:21:21;;;;;;;5.97;3.33;;;;;;;22.69;54.14;97707.25;10210832;28;20049;-57
2022/08/03 07:26:20;;;;;;;5.25;3.60;;;;;;;22.92;53.89;97715.84;10211184;28;20121;-56
2022/08/03 07:31:19;;;;;;;5.40;3.30;;;;;;;23.20;54.05;97713.47;10210734;28;20030;-56
2022/08/03 07:36:18;;;;;;;5.00;3.17;;;;;;;23.56;51.96;97709.84;10210168;28;20050;-56
2022/08/03 07:41:18;;;;;;;4.72;2.85;;;;;;;23.81;50.57;97709.31;10209345;28;20417;-56
2022/08/03 07:46:17;;;;;;;4.82;2.65;;;;;;;24.25;51.41;97705.16;10210876;28;20074;-56
2022/08/03 07:51:16;;;;;;;4.65;2.45;;;;;;;24.51;50.22;97706.28;10210004;28;20089;-56
2022/08/03 07:56:15;;;;;;;6.00;2.85;;;;;;;24.80;49.33;97709.03;10209656;28;20026;-57
2022/08/03 08:01:15;;;;;;;4.68;2.90;;;;;;;24.84;46.66;97702.59;10210302;28;20085;-57
2022/08/03 08:06:16;;;;;;;14.65;3.55;;;;;;;25.03;46.51;97707.69;10210784;28;20103;-56
2022/08/03 08:11:15;;;;;;;4.00;2.80;;;;;;;25.23;45.57;97707.34;10210626;28;20078;-57
2022/08/03 08:16:14;;;;;;;5.50;3.05;;;;;;;25.57;45.52;97715.88;10209729;28;20106;-57
2022/08/03 08:21:13;;;;;;;5.28;2.72;;;;;;;25.74;43.80;97721.00;10205495;28;20034;-57
2022/08/03 08:26:12;;;;;;;4.47;3.03;;;;;;;26.07;42.36;97722.47;10209269;28;20122;-57
2022/08/03 08:31:11;;;;;;;5.35;2.90;;;;;;;26.26;43.47;97716.00;10209192;28;20073;-57
2022/08/03 08:36:10;;;;;;;3.90;3.13;;;;;;;26.26;42.28;97711.50;10209069;28;20047;-57
2022/08/03 08:41:13;;;;;;;4.25;3.10;;;;;;;26.43;42.68;97720.19;10211139;28;20081;-57
2022/08/03 08:46:14;;;;;;;5.85;2.78;;;;;;;26.55;42.71;97727.34;10209300;28;20261;-57
2022/08/03 08:51:15;;;;;;;3.65;2.72;;;;;;;26.52;41.48;97717.78;10208691;28;20074;-57
2022/08/03 08:56:15;;;;;;;5.18;2.95;;;;;;;26.67;41.04;97723.03;10206982;28;20093;-57
2022/08/03 09:01:18;;;;;;;4.90;2.50;;;;;;;26.67;40.39;97720.38;10208822;28;20078;-57
2022/08/03 09:06:17;;;;;;;3.28;2.60;;;;;;;26.84;39.88;97713.94;10211059;28;20521;-57
2022/08/03 09:11:21;;;;;;;3.53;2.70;;;;;;;26.88;39.62;97708.28;10215480;28;20531;-57
2022/08/03 09:16:21;;;;;;;4.63;2.80;;;;;;;26.99;39.30;97711.06;10215378;28;20065;-57
2022/08/03 09:21:24;;;;;;;4.47;3.30;;;;;;;27.08;39.28;97690.09;10215655;28;20077;-56
2022/08/03 09:26:25;;;;;;;2.50;2.30;;;;;;;27.38;38.89;97708.44;10215402;28;20146;-56
2022/08/03 09:31:59;;;;;;;5.88;2.40;;;;;;;27.61;37.67;97706.81;10203999;28;20050;-56
2022/08/03 09:36:58;;;;;;;5.07;2.88;;;;;;;27.67;38.12;97709.06;10206486;28;20122;-56
2022/08/03 09:42:06;;;;;;;5.50;2.58;;;;;;;27.54;37.29;97709.09;10196355;28;20527;-56
2022/08/03 09:47:05;;;;;;;2.90;2.47;;;;;;;27.64;37.51;97706.63;10208398;28;20985;-56
2022/08/03 09:52:29;;;;;;;4.78;2.67;;;;;;;27.89;37.92;97700.34;10207049;28;20074;-56
2022/08/03 09:57:31;;;;;;;4.03;2.58;;;;;;;28.05;37.54;97690.25;10178757;28;20133;-56
2022/08/03 10:02:30;;;;;;;5.07;2.67;;;;;;;28.17;37.07;97687.69;10202413;28;20066;-56
2022/08/03 10:07:29;;;;;;;4.25;2.92;;;;;;;28.37;35.76;97684.41;10213868;28;20043;-56
2022/08/03 10:12:28;;;;;;;4.35;2.72;;;;;;;28.09;37.07;97669.59;10213620;28;20026;-56
2022/08/03 10:17:27;;;;;;;7.03;2.90;;;;;;;28.14;36.78;97674.59;10211820;28;20066;-56
2022/08/03 10:22:29;;;;;;;9.88;3.60;;;;;;;28.40;37.47;97672.66;10206998;28;20050;-56
2022/08/03 10:27:37;;;;;;;4.43;2.88;;;;;;;28.25;37.29;97675.50;10179302;28;20496;-57
2022/08/03 10:32:44;;;;;;;3.80;2.53;;;;;;;28.14;36.11;97670.09;10212809;28;20062;-59
2022/08/03 10:38:05;;;;;;;3.90;2.40;;;;;;;28.46;37.14;97656.19;10212959;28;20066;-57
2022/08/03 10:43:12;;;;;;;4.65;2.72;;;;;;;28.66;35.96;97652.84;10211484;28;20070;-57
2022/08/03 10:48:12;;;;;;;3.10;2.80;;;;;;;28.22;35.93;97643.72;10212164;28;20082;-57
2022/08/03 10:53:11;;;;;;;2.80;2.58;;;;;;;28.17;36.21;97643.22;10223387;28;20062;-57
2022/08/03 10:58:10;;;;;;;3.63;3.00;;;;;;;28.39;35.93;97641.59;10212271;28;20541;-57
2022/08/03 11:03:10;;;;;;;5.50;3.05;;;;;;;28.72;35.34;97638.19;10211141;28;20154;-56
2022/08/03 11:08:22;;;;;;;5.15;3.00;;;;;;;29.01;35.20;97630.59;10210833;28;20510;-56
2022/08/03 11:13:23;;;;;;;3.15;2.83;;;;;;;29.47;34.87;97629.66;10210868;28;20061;-56
2022/08/03 11:18:23;;;;;;;3.30;3.00;;;;;;;29.01;34.95;97637.75;10211077;28;20501;-56
2022/08/03 11:23:46;;;;;;;3.50;3.15;;;;;;;29.26;35.42;97623.34;10210868;28;20074;-56
2022/08/03 11:28:46;;;;;;;3.42;3.10;;;;;;;29.42;33.79;97618.47;10212050;28;20078;-56
2022/08/03 11:34:06;;;;;;;3.75;2.60;;;;;;;29.24;33.73;97609.22;10209310;28;20090;-56
2022/08/03 11:39:15;;;;;;;3.25;2.95;;;;;;;29.34;34.89;97604.03;10209437;28;20070;-56
2022/08/03 11:44:38;;;;;;;4.32;2.85;;;;;;;29.34;34.82;97607.53;10210070;28;20097;-56
2022/08/03 11:49:39;;;;;;;4.85;3.05;;;;;;;29.55;34.67;97602.28;10211576;28;20078;-57
2022/08/03 11:54:38;;;;;;;3.33;2.80;;;;;;;29.80;33.11;97586.94;10187551;28;20070;-57
2022/08/03 11:59:37;;;;;;;3.15;2.88;;;;;;;29.97;32.73;97567.66;10170216;29;20071;-57
2022/08/03 12:05:01;;;;;;;5.10;3.22;;;;;;;29.82;33.62;97583.16;10170443;29;20035;-57
2022/08/03 12:10:07;;;;;;;4.53;3.20;;;;;;;29.63;34.45;97589.16;10170601;28;20079;-57
2022/08/03 12:15:06;;;;;;;5.30;3.10;;;;;;;29.31;34.62;97601.59;10188193;28;20098;-57
2022/08/03 12:20:19;;;;;;;3.92;2.67;;;;;;;29.01;34.57;97590.50;10210439;28;20089;-57
2022/08/03 12:25:26;;;;;;;4.68;3.40;;;;;;;29.17;34.67;97586.63;10209657;28;20066;-57
2022/08/03 12:30:26;;;;;;;5.13;3.37;;;;;;;29.54;34.81;97567.66;10209868;28;20078;-57
2022/08/03 12:35:25;;;;;;;4.90;3.13;;;;;;;30.01;33.75;97571.81;10209628;28;20087;-57
2022/08/03 12:40:26;;;;;;;4.88;2.83;;;;;;;30.26;33.01;97559.88;10210182;28;20436;-57
2022/08/03 12:45:27;;;;;;;3.97;2.90;;;;;;;30.08;31.99;97566.78;10217434;28;20089;-57
2022/08/03 12:50:29;;;;;;;3.15;2.78;;;;;;;30.17;32.62;97570.53;10216897;28;20062;-56
2022/08/03 12:55:35;;;;;;;4.03;2.88;;;;;;;30.02;32.86;97557.44;10217069;28;20066;-56
2022/08/03 13:00:34;;;;;;;3.33;2.80;;;;;;;30.13;32.82;97560.06;10216700;28;20070;-56
2022/08/03 13:05:45;;;;;;;5.38;2.83;;;;;;;30.19;31.77;97549.81;10216823;28;20074;-57
2022/08/03 13:10:44;;;;;;;3.25;2.90;;;;;;;30.03;31.82;97559.16;10216735;28;20085;-57
2022/08/03 13:15:43;;;;;;;4.85;3.10;;;;;;;29.46;33.10;97561.13;10216400;28;20063;-56
2022/08/03 13:20:42;;;;;;;3.42;3.10;;;;;;;29.41;33.66;97560.63;10215546;28;20105;-56
2022/08/03 13:25:41;;;;;;;5.25;2.90;;;;;;;29.49;32.48;97552.00;10216436;28;20086;-56
2022/08/03 13:30:40;;;;;;;3.10;2.80;;;;;;;29.55;32.54;97558.66;10214740;28;20041;-56
2022/08/03 13:35:39;;;;;;;3.65;2.97;;;;;;;29.77;33.04;97531.88;10214932;28;20501;-56
2022/08/03 13:40:38;;;;;;;5.47;3.40;;;;;;;29.83;32.59;97547.38;10216780;28;20038;-57
2022/08/03 13:45:37;;;;;;;4.55;3.00;;;;;;;29.82;31.99;97545.69;10214305;28;20505;-56
2022/08/03 13:50:36;;;;;;;3.33;2.92;;;;;;;29.81;31.73;97527.97;10214699;28;20062;-56
2022/08/03 13:55:35;;;;;;;3.38;3.05;;;;;;;29.96;32.12;97533.88;10196429;28;20468;-57
2022/08/03 14:00:34;;;;;;;3.13;2.85;;;;;;;30.23;30.34;97537.88;10208876;28;20517;-57
2022/08/03 14:05:34;;;;;;;4.25;3.35;;;;;;;30.48;30.65;97532.16;10204393;28;20047;-57
2022/08/03 14:10:39;;;;;;;3.95;3.00;;;;;;;30.49;30.77;97516.94;10211261;28;20089;-57
2022/08/03 14:15:38;;;;;;;6.20;2.95;;;;;;;30.38;30.08;97519.69;10210724;28;20097;-58
2022/08/03 14:20:37;;;;;;;3.20;2.70;;;;;;;30.50;29.97;97519.47;10204483;28;20031;-57
2022/08/03 14:25:36;;;;;;;3.55;2.70;;;;;;;30.41;28.97;97514.06;10212521;28;20031;-57
2022/08/03 14:30:35;;;;;;;3.42;2.50;;;;;;;30.26;28.03;97522.41;10202660;28;20490;-58
2022/08/03 14:35:34;;;;;;;3.28;2.70;;;;;;;30.36;27.94;97514.44;10198600;28;20049;-56
2022/08/03 14:40:33;;;;;;;3.10;2.75;;;;;;;30.35;29.41;97515.41;10209315;28;20035;-57
2022/08/03 14:45:33;;;;;;;4.35;2.80;;;;;;;30.19;29.79;97515.88;10210011;28;20018;-57
2022/08/03 14:50:32;;;;;;;4.97;3.10;;;;;;;30.15;30.13;97510.94;10201974;28;20592;-57
2022/08/03 14:55:31;;;;;;;4.03;3.00;;;;;;;29.83;30.35;97512.59;10198701;28;20400;-57
2022/08/03 15:00:31;;;;;;;2.97;2.65;;;;;;;29.83;31.25;97512.59;10207036;28;20484;-57
2022/08/03 15:05:30;;;;;;;3.90;2.58;;;;;;;29.84;29.40;97502.81;10207058;28;20119;-57
2022/08/03 15:10:29;;;;;;;2.75;2.38;;;;;;;30.03;29.48;97494.94;10212078;28;20141;-57
2022/08/03 15:15:28;;;;;;;2.50;2.30;;;;;;;30.06;28.58;97488.47;10199833;28;20508;-59
2022/08/03 15:20:27;;;;;;;3.63;2.40;;;;;;;30.09;28.56;97483.72;10172754;28;20429;-57
2022/08/03 15:25:26;;;;;;;3.72;2.80;;;;;;;30.18;28.41;97483.88;10202088;28;20082;-57
2022/08/03 15:30:25;;;;;;;3.22;2.35;;;;;;;30.23;28.25;97473.63;10208651;28;20042;-57
2022/08/03 15:35:24;;;;;;;4.28;2.40;;;;;;;30.24;28.69;97476.19;10196909;28;20055;-57
2022/08/03 15:40:23;;;;;;;3.15;2.50;;;;;;;30.10;29.44;97480.03;10208889;28;20118;-57
2022/08/03 15:45:22;;;;;;;3.10;2.67;;;;;;;29.77;29.36;97480.19;10208674;28;20042;-57
2022/08/03 15:50:21;;;;;;;5.20;2.80;;;;;;;29.44;30.50;97476.69;10208322;28;20073;-56
2022/08/03 15:55:20;;;;;;;3.72;2.78;;;;;;;29.14;30.76;97475.50;10207813;28;20026;-56
2022/08/03 16:00:19;;;;;;;3.55;2.58;;;;;;;29.12;31.51;97476.59;10189568;28;20043;-57
2022/08/03 16:05:18;;;;;;;4.18;2.80;;;;;;;29.08;31.72;97486.69;10168491;29;20031;-56
2022/08/03 16:10:17;;;;;;;3.65;2.70;;;;;;;29.03;31.35;97487.03;10169457;29;20074;-56
2022/08/03 16:15:17;;;;;;;4.07;2.70;;;;;;;28.90;31.56;97499.72;10186325;28;20081;-58
2022/08/03 16:20:15;;;;;;;3.90;2.88;;;;;;;28.89;31.72;97498.00;10218352;28;20066;-56
2022/08/03 16:25:16;;;;;;;4.10;2.38;;;;;;;28.99;31.70;97498.97;10218600;28;20117;-57
2022/08/03 16:30:16;;;;;;;3.15;2.63;;;;;;;29.01;32.28;97498.84;10198336;28;20082;-58
2022/08/03 16:35:15;;;;;;;3.78;2.90;;;;;;;28.88;32.59;97507.84;10177795;28;20083;-57
2022/08/03 16:40:15;;;;;;;4.57;3.42;;;;;;;28.72;32.01;97502.00;10216812;28;20078;-57
2022/08/03 16:45:13;;;;;;;4.18;2.88;;;;;;;28.65;33.19;97512.28;10215414;28;20078;-58
2022/08/03 16:50:13;;;;;;;7.13;4.03;;;;;;;28.49;33.29;97517.13;10215951;28;20125;-56
2022/08/03 16:55:13;;;;;;;5.53;3.40;;;;;;;28.19;33.80;97515.84;10215972;28;20073;-56
2022/08/03 17:00:13;;;;;;;4.28;2.97;;;;;;;27.98;34.28;97523.63;10215075;28;20114;-56
2022/08/03 17:05:12;;;;;;;5.03;3.50;;;;;;;27.87;34.23;97522.75;10215440;28;20489;-56
2022/08/03 17:10:11;;;;;;;4.00;3.00;;;;;;;27.72;33.60;97527.44;10191048;28;20715;-56
2022/08/03 17:15:10;;;;;;;3.53;3.03;;;;;;;27.71;33.83;97526.59;10215668;28;20491;-56
2022/08/03 17:20:13;;;;;;;7.93;3.88;;;;;;;27.67;34.74;97522.44;10211319;28;20497;-58
2022/08/03 17:25:12;;;;;;;4.55;3.38;;;;;;;27.53;34.15;97518.13;10213525;28;20115;-57
2022/08/03 17:30:14;;;;;;;3.30;2.60;;;;;;;27.46;34.78;97532.00;10212404;28;20658;-57
2022/08/03 17:35:13;;;;;;;6.28;3.08;;;;;;;27.37;35.12;97522.84;10212063;28;20089;-57
2022/08/03 17:40:13;;;;;;;4.25;3.47;;;;;;;27.27;35.59;97536.00;10211895;28;20081;-55
2022/08/03 17:45:12;;;;;;;3.28;2.95;;;;;;;27.21;35.84;97544.41;10214628;28;20309;-56
2022/08/03 17:50:11;;;;;;;6.72;3.60;;;;;;;26.97;36.83;97542.56;10214298;28;20030;-55
2022/08/03 17:55:16;;;;;;;7.72;4.15;;;;;;;26.79;37.14;97547.34;10215498;28;20074;-56
2022/08/03 18:05:35;;;;;;;3.50;3.13;;;;;;;26.31;38.33;97557.75;10214291;28;20066;-56
2022/08/03 18:10:35;;;;;;;5.82;4.00;;;;;;;26.11;38.95;97558.22;10214765;28;20089;-56
2022/08/03 18:15:41;;;;;;;6.68;4.25;;;;;;;25.86;39.79;97564.34;10214462;28;20067;-57
2022/08/03 18:20:42;;;;;;;7.50;4.32;;;;;;;25.62;40.61;97565.00;10213326;28;20083;-56
2022/08/03 18:25:41;;;;;;;7.47;3.90;;;;;;;25.43;41.49;97583.03;10213516;28;20507;-56
2022/08/03 18:30:44;;;;;;;5.40;3.95;;;;;;;25.27;41.84;97583.16;10212125;28;20505;-56
2022/08/03 18:35:44;;;;;;;5.75;3.88;;;;;;;25.05;42.19;97589.81;10212957;28;20543;-58
2022/08/03 18:40:43;;;;;;;6.88;3.50;;;;;;;24.79;42.28;97588.75;10213122;28;20081;-56
2022/08/03 18:45:43;;;;;;;5.70;3.10;;;;;;;24.64;42.58;97608.28;10212543;28;20074;-57
2022/08/03 18:51:03;;;;;;;4.78;3.50;;;;;;;24.43;42.82;97605.97;10215757;28;20078;-57
2022/08/03 18:56:13;;;;;;;5.22;3.05;;;;;;;24.26;43.29;97611.38;10212526;28;20070;-57
2022/08/03 19:01:19;;;;;;;7.13;3.50;;;;;;;24.05;43.81;97608.16;10212341;28;20077;-57
2022/08/03 19:06:22;;;;;;;4.25;2.97;;;;;;;23.85;44.55;97625.22;10212962;28;20487;-56
2022/08/03 19:11:29;;;;;;;3.58;3.00;;;;;;;23.60;44.93;97631.03;10212554;28;20085;-56
2022/08/03 19:16:35;;;;;;;5.28;3.30;;;;;;;23.39;45.61;97627.75;10211226;28;20078;-56
2022/08/03 19:21:35;;;;;;;6.03;3.35;;;;;;;23.17;45.42;97631.56;10211941;28;20081;-57
2022/08/03 19:26:37;;;;;;;4.55;3.47;;;;;;;23.03;45.57;97634.13;10211038;28;20086;-57
2022/08/03 19:31:37;;;;;;;4.93;3.05;;;;;;;22.89;46.13;97639.28;10210555;28;20574;-56
2022/08/03 19:36:37;;;;;;;3.63;3.10;;;;;;;22.70;46.38;97640.22;10210701;28;20082;-57
2022/08/03 19:41:39;;;;;;;4.97;3.15;;;;;;;22.60;46.44;97652.22;10210340;28;20058;-57
2022/08/03 19:47:00;;;;;;;3.70;3.20;;;;;;;22.47;47.11;97656.41;10210694;28;20536;-57
2022/08/03 19:51:59;;;;;;;8.55;3.72;;;;;;;22.34;47.72;97657.03;10209879;28;20083;-57
2022/08/03 19:57:00;;;;;;;5.22;3.28;;;;;;;22.19;48.43;97657.78;10210468;28;20074;-57
2022/08/03 20:02:01;;;;;;;4.43;3.58;;;;;;;22.06;49.16;97662.84;10208087;28;20074;-58
2022/08/03 20:07:01;;;;;;;5.07;3.72;;;;;;;21.93;49.50;97664.31;10185445;28;20075;-57
2022/08/03 20:12:01;;;;;;;5.85;3.58;;;;;;;21.73;50.45;97666.13;10169907;28;20094;-57
2022/08/03 20:17:00;;;;;;;7.32;4.25;;;;;;;21.63;50.62;97674.56;10191331;28;20059;-57
2022/08/03 20:21:59;;;;;;;7.25;5.07;;;;;;;21.51;51.07;97670.69;10200888;28;20071;-57
2022/08/03 20:27:02;;;;;;;5.55;4.35;;;;;;;21.42;51.87;97674.63;10184332;28;20118;-57
2022/08/03 20:32:01;;;;;;;7.00;4.88;;;;;;;21.38;52.16;97673.03;10174837;28;20059;-57
2022/08/03 20:37:00;;;;;;;9.90;4.88;;;;;;;21.25;53.54;97678.03;10199981;28;20078;-57
2022/08/03 20:42:01;;;;;;;8.63;4.90;;;;;;;21.17;54.71;97676.63;10188824;28;20543;-57
2022/08/03 20:47:02;;;;;;;7.43;4.70;;;;;;;21.07;55.39;97682.31;10200400;28;20078;-57
2022/08/03 20:52:02;;;;;;;9.10;5.25;;;;;;;20.90;55.58;97669.88;10191870;28;21134;-57
2022/08/03 20:57:01;;;;;;;9.77;5.18;;;;;;;20.86;55.98;97678.00;10195782;28;20062;-57
2022/08/03 21:02:00;;;;;;;7.13;5.00;;;;;;;20.71;56.55;97675.09;10181085;28;20123;-57
2022/08/03 21:07:05;;;;;;;9.57;5.90;;;;;;;20.63;57.23;97685.13;10183409;28;20134;-57
2022/08/03 21:12:06;;;;;;;7.88;6.22;;;;;;;20.49;57.76;97685.72;10182400;28;20089;-57
2022/08/03 21:17:07;;;;;;;9.13;5.93;;;;;;;20.38;57.85;97690.53;10209983;28;20074;-57
2022/08/03 21:22:07;;;;;;;7.03;5.00;;;;;;;20.31;58.15;97686.44;10178037;28;20082;-57
2022/08/03 21:27:06;;;;;;;5.70;4.22;;;;;;;20.22;58.23;97698.22;10216270;28;20082;-57
2022/08/03 21:32:06;;;;;;;5.93;4.50;;;;;;;20.12;58.92;97704.78;10206540;28;20066;-57
2022/08/03 21:37:05;;;;;;;5.20;3.67;;;;;;;20.01;59.38;97699.09;10192355;28;20086;-57
2022/08/03 21:42:04;;;;;;;5.15;4.40;;;;;;;19.90;59.43;97703.91;10194664;28;20866;-57
2022/08/03 21:47:05;;;;;;;5.63;4.13;;;;;;;19.81;59.88;97703.38;10196575;28;20126;-57
2022/08/03 21:52:05;;;;;;;6.85;4.38;;;;;;;19.74;60.69;97706.28;10204953;28;20065;-57
2022/08/03 21:57:11;;;;;;;7.70;4.60;;;;;;;19.58;62.33;97706.00;10186779;28;20082;-57
2022/08/03 22:02:10;;;;;;;7.13;5.03;;;;;;;19.48;62.55;97691.44;10181415;28;20074;-57
2022/08/03 22:07:10;;;;;;;8.50;5.40;;;;;;;19.45;63.40;97709.06;10211305;28;20553;-57
2022/08/03 22:12:09;;;;;;;10.52;5.55;;;;;;;19.35;64.46;97706.88;10202624;28;20279;-57
2022/08/03 22:17:08;;;;;;;7.47;5.30;;;;;;;19.24;65.24;97715.13;10230444;28;20162;-56
2022/08/03 22:22:12;;;;;;;11.80;5.72;;;;;;;19.07;65.85;97701.75;10205999;28;20572;-55
2022/08/03 22:27:30;;;;;;;7.53;5.53;;;;;;;18.99;65.88;97712.53;10203856;28;20121;-55
2022/08/03 22:32:30;;;;;;;7.65;5.22;;;;;;;18.96;66.03;97716.13;10209418;28;20137;-55
2022/08/03 22:37:31;;;;;;;8.25;5.07;;;;;;;18.90;66.44;97716.34;10214693;28;20144;-55
2022/08/03 22:42:30;;;;;;;6.65;5.10;;;;;;;18.88;66.62;97718.19;10214968;28;20081;-56
2022/08/03 22:47:33;;;;;;;7.65;5.35;;;;;;;18.85;66.79;97720.03;10211575;28;20085;-56
2022/08/03 22:52:32;;;;;;;9.35;5.35;;;;;;;18.80;66.84;97721.06;10194514;28;20062;-55
2022/08/03 22:57:33;;;;;;;6.70;5.20;;;;;;;18.58;67.50;97702.50;10209173;28;20092;-56
2022/08/03 23:02:35;;;;;;;7.60;5.70;;;;;;;18.61;68.01;97718.16;10194084;28;20070;-56
2022/08/03 23:07:38;;;;;;;7.25;5.75;;;;;;;18.56;68.12;97719.25;10206957;28;20081;-56
2022/08/03 23:12:38;;;;;;;9.45;5.63;;;;;;;18.46;68.88;97718.69;10210323;28;20535;-56
2022/08/03 23:17:51;;;;;;;8.32;5.72;;;;;;;18.40;69.35;97726.78;10213402;28;20077;-56
2022/08/03 23:22:50;;;;;;;7.60;5.60;;;;;;;18.34;69.43;97719.13;10214741;28;20066;-56
2022/08/03 23:27:50;;;;;;;9.07;5.95;;;;;;;18.25;69.63;97720.25;10193327;28;20122;-56
2022/08/03 23:32:51;;;;;;;9.50;5.95;;;;;;;18.17;69.93;97724.88;10187232;28;20579;-56